createdAt,value
2022-10-20T00:00:59.752Z,3.85
2022-10-20T00:03:28.633Z,2.35
2022-10-20T00:05:57.092Z,2.53
2022-10-20T00:08:26.013Z,2.45
2022-10-20T00:10:56.832Z,2.35
2022-10-20T00:13:25.736Z,2.95
2022-10-20T00:15:54.573Z,2.20
2022-10-20T00:18:23.575Z,2.22
2022-10-20T00:20:52.792Z,2.40
2022-10-20T00:23:21.299Z,2.50
2022-10-20T00:25:49.653Z,1.83
2022-10-20T00:28:19.326Z,2.45
2022-10-20T00:30:47.630Z,2.50
2022-10-20T00:33:15.975Z,2.13
2022-10-20T00:35:44.274Z,3.08
2022-10-20T00:38:12.650Z,2.75
2022-10-20T00:40:41.114Z,2.42
2022-10-20T00:43:11.864Z,2.58
2022-10-20T00:45:42.071Z,4.25
2022-10-20T00:48:15.480Z,3.22
2022-10-20T00:50:45.493Z,3.13
2022-10-20T00:53:14.057Z,3.00
2022-10-20T00:55:44.528Z,3.63
2022-10-20T00:58:12.890Z,2.92
2022-10-20T01:00:43.629Z,3.67
2022-10-20T01:03:15.343Z,2.58
2022-10-20T01:05:44.172Z,3.10
2022-10-20T01:08:12.869Z,3.22
2022-10-20T01:25:59.252Z,2.70
2022-10-20T01:28:52.495Z,4.32
2022-10-20T01:31:24.794Z,2.72
2022-10-20T01:34:17.278Z,3.30
2022-10-20T01:37:03.428Z,4.22
2022-10-20T01:39:37.098Z,2.60
2022-10-20T01:42:07.729Z,3.45
2022-10-20T01:44:38.784Z,4.53
2022-10-20T01:47:08.367Z,3.35
2022-10-20T01:49:37.134Z,3.13
2022-10-20T01:52:05.704Z,3.08
2022-10-20T01:54:36.159Z,2.67
2022-10-20T01:57:12.053Z,3.65
2022-10-20T01:59:57.689Z,2.67
2022-10-20T02:02:39.600Z,3.42
2022-10-20T02:05:15.143Z,3.63
2022-10-20T02:07:43.880Z,2.97
2022-10-20T02:10:18.367Z,3.33
2022-10-20T02:13:03.421Z,3.45
2022-10-20T02:15:34.847Z,2.70
2022-10-20T02:18:05.246Z,2.67
2022-10-20T02:20:35.143Z,3.30
2022-10-20T02:23:06.334Z,2.45
2022-10-20T02:25:35.782Z,2.58
2022-10-20T02:28:04.537Z,2.38
2022-10-20T02:30:34.787Z,2.28
2022-10-20T02:33:03.228Z,3.20
2022-10-20T02:35:47.243Z,3.53
2022-10-20T02:38:15.698Z,2.17
2022-10-20T02:40:46.985Z,1.90
2022-10-20T02:43:15.351Z,2.33
2022-10-20T02:48:33.404Z,2.00
2022-10-20T02:51:02.016Z,2.28
2022-10-20T02:53:30.294Z,2.67
2022-10-20T02:56:06.555Z,3.13
2022-10-20T02:58:34.892Z,2.50
2022-10-20T03:01:19.497Z,2.08
2022-10-20T03:03:47.883Z,3.20
2022-10-20T03:06:17.131Z,1.77
2022-10-20T03:11:57.587Z,2.45
2022-10-20T03:14:26.664Z,2.55
2022-10-20T03:16:59.162Z,2.65
2022-10-20T03:19:27.519Z,2.28
2022-10-20T03:22:10.678Z,2.33
2022-10-20T03:24:39.136Z,1.95
2022-10-20T03:27:07.521Z,2.75
2022-10-20T03:29:36.352Z,1.98
2022-10-20T03:35:03.247Z,2.47
2022-10-20T03:40:48.297Z,2.70
2022-10-20T03:46:05.298Z,1.90
2022-10-20T03:48:43.744Z,2.80
2022-10-20T03:51:32.112Z,2.28
2022-10-20T03:54:00.484Z,2.17
2022-10-20T03:56:28.992Z,2.03
2022-10-20T03:59:17.199Z,2.22
2022-10-20T04:04:48.941Z,1.88
2022-10-20T04:07:17.677Z,4.50
2022-10-20T04:12:28.208Z,2.33
2022-10-20T04:15:13.168Z,2.47
2022-10-20T04:17:43.229Z,1.80
2022-10-20T04:20:14.170Z,1.40
2022-10-20T04:25:48.888Z,1.70
2022-10-20T04:28:18.430Z,1.75
2022-10-20T04:30:49.130Z,2.80
2022-10-20T04:33:18.061Z,2.53
2022-10-20T04:35:48.085Z,2.33
2022-10-20T04:38:17.063Z,3.05
2022-10-20T04:40:49.177Z,2.00
2022-10-20T04:52:08.210Z,2.00
2022-10-20T04:54:37.177Z,2.35
2022-10-20T04:57:06.366Z,2.28
2022-10-20T04:59:34.869Z,2.95
2022-10-20T05:02:03.224Z,2.20
2022-10-20T05:04:31.714Z,2.47
2022-10-20T05:07:00.102Z,2.42
2022-10-20T05:09:32.948Z,3.53
2022-10-20T05:12:01.765Z,2.00
2022-10-20T05:14:30.301Z,1.75
2022-10-20T05:16:58.647Z,2.67
2022-10-20T05:19:29.537Z,2.13
2022-10-20T05:22:08.711Z,1.52
2022-10-20T05:24:39.042Z,2.90
2022-10-20T05:27:07.670Z,1.70
2022-10-20T05:29:35.957Z,2.45
2022-10-20T05:32:04.247Z,1.58
2022-10-20T05:34:32.532Z,2.72
2022-10-20T05:37:00.783Z,2.00
2022-10-20T05:39:29.297Z,2.22
2022-10-20T05:41:59.348Z,1.70
2022-10-20T05:44:27.862Z,1.95
2022-10-20T05:46:56.756Z,3.22
2022-10-20T05:49:25.153Z,2.28
2022-10-20T05:51:53.689Z,1.60
2022-10-20T05:54:22.320Z,2.03
2022-10-20T05:57:03.211Z,1.70
2022-10-20T05:59:33.623Z,1.80
2022-10-20T06:02:02.130Z,2.70
2022-10-20T06:04:31.172Z,1.83
2022-10-20T06:06:59.754Z,1.60
2022-10-20T06:09:28.157Z,1.90
2022-10-20T06:11:57.153Z,2.08
2022-10-20T06:14:25.868Z,2.35
2022-10-20T06:16:56.138Z,2.70
2022-10-20T06:19:24.878Z,1.23
2022-10-20T06:21:53.719Z,2.45
2022-10-20T06:24:22.194Z,1.77
2022-10-20T06:26:51.467Z,3.03
2022-10-20T06:29:20.311Z,2.28
2022-10-20T06:31:49.375Z,2.05
2022-10-20T06:34:20.129Z,1.70
2022-10-20T06:36:50.023Z,2.58
2022-10-20T06:39:19.556Z,2.22
2022-10-20T06:41:50.413Z,2.67
2022-10-20T06:44:19.229Z,2.78
2022-10-20T06:46:47.864Z,1.50
2022-10-20T06:49:16.391Z,1.65
2022-10-20T06:51:46.269Z,2.10
2022-10-20T06:54:14.698Z,2.85
2022-10-20T06:56:43.020Z,3.30
2022-10-20T06:59:11.676Z,3.00
2022-10-20T07:01:40.896Z,2.20
2022-10-20T07:04:12.011Z,2.22
2022-10-20T07:06:41.347Z,1.90
2022-10-20T07:09:14.532Z,2.28
2022-10-20T07:11:45.822Z,2.92
2022-10-20T07:14:15.376Z,2.25
2022-10-20T07:16:43.907Z,2.80
2022-10-20T07:19:12.457Z,1.38
2022-10-20T07:21:45.295Z,2.47
2022-10-20T07:24:17.307Z,1.95
2022-10-20T07:26:45.695Z,2.20
2022-10-20T07:29:14.925Z,1.83
2022-10-20T07:31:44.803Z,1.65
2022-10-20T07:34:25.206Z,1.73
2022-10-20T07:36:55.691Z,1.15
2022-10-20T07:39:28.243Z,1.95
2022-10-20T07:41:56.744Z,2.58
2022-10-20T07:44:25.088Z,1.65
2022-10-20T07:46:53.633Z,1.35
2022-10-20T07:52:12.300Z,1.48
2022-10-20T07:54:44.769Z,1.85
2022-10-20T07:57:13.700Z,1.98
2022-10-20T07:59:42.296Z,1.30
2022-10-20T08:02:16.207Z,2.05
2022-10-20T08:04:45.751Z,1.98
2022-10-20T08:07:15.563Z,1.77
2022-10-20T08:12:14.308Z,2.25
2022-10-20T08:14:44.691Z,2.28
2022-10-20T08:17:13.303Z,1.20
2022-10-20T08:19:51.228Z,1.70
2022-10-20T08:22:20.378Z,1.45
2022-10-20T08:24:50.514Z,1.35
2022-10-20T08:27:19.555Z,1.35
2022-10-20T08:30:06.344Z,1.70
2022-10-20T08:32:40.509Z,1.75
2022-10-20T08:35:09.614Z,1.52
2022-10-20T08:37:38.781Z,1.33
2022-10-20T08:40:09.881Z,1.55
2022-10-20T08:42:40.906Z,1.70
2022-10-20T08:45:10.051Z,1.77
2022-10-20T08:47:39.660Z,2.42
2022-10-20T08:50:10.457Z,1.58
2022-10-20T08:52:42.050Z,1.30
2022-10-20T08:55:18.453Z,2.25
2022-10-20T08:57:49.700Z,1.10
2022-10-20T09:00:20.178Z,1.35
2022-10-20T09:02:51.950Z,1.73
2022-10-20T09:05:22.993Z,1.30
2022-10-20T09:07:51.790Z,1.35
2022-10-20T09:10:28.923Z,1.25
2022-10-20T09:12:57.943Z,0.90
2022-10-20T09:15:27.696Z,1.73
2022-10-20T09:17:57.521Z,1.60
2022-10-20T09:20:27.972Z,2.15
2022-10-20T09:22:56.407Z,2.08
2022-10-20T09:25:27.421Z,2.10
2022-10-20T09:27:58.103Z,2.15
2022-10-20T09:30:34.413Z,2.08
2022-10-20T09:33:04.465Z,1.17
2022-10-20T09:35:34.959Z,2.05
2022-10-20T09:38:04.899Z,1.58
2022-10-20T09:40:33.333Z,1.65
2022-10-20T09:43:04.137Z,1.88
2022-10-20T09:45:33.747Z,2.10
2022-10-20T09:48:04.396Z,1.65
2022-10-20T09:50:34.447Z,1.17
2022-10-20T09:53:04.059Z,1.40
2022-10-20T09:55:33.275Z,2.05
2022-10-20T09:58:04.490Z,1.85
2022-10-20T10:00:37.619Z,2.00
2022-10-20T10:03:11.070Z,1.35
2022-10-20T10:05:39.629Z,1.63
2022-10-20T10:08:14.906Z,2.05
2022-10-20T10:10:45.196Z,1.95
2022-10-20T10:13:26.801Z,1.75
2022-10-20T10:16:02.782Z,1.15
2022-10-20T10:18:31.698Z,1.95
2022-10-20T10:21:02.302Z,1.63
2022-10-20T10:23:31.711Z,2.17
2022-10-20T10:26:02.290Z,1.13
2022-10-20T10:28:37.976Z,1.50
2022-10-20T10:31:11.285Z,1.85
2022-10-20T10:33:40.196Z,1.08
2022-10-20T10:36:09.624Z,1.63
2022-10-20T10:38:39.195Z,2.05
2022-10-20T10:41:15.945Z,1.65
2022-10-20T10:43:50.736Z,1.35
2022-10-20T10:46:21.451Z,2.15
2022-10-20T10:48:56.283Z,2.53
2022-10-20T10:51:29.970Z,1.27
2022-10-20T10:54:08.012Z,2.13
2022-10-20T10:56:42.937Z,1.67
2022-10-20T10:59:16.689Z,1.30
2022-10-20T11:02:00.043Z,1.95
2022-10-20T11:04:39.823Z,1.35
2022-10-20T11:07:13.148Z,1.27
2022-10-20T11:09:45.525Z,1.50
2022-10-20T11:12:28.601Z,1.25
2022-10-20T11:15:06.674Z,1.60
2022-10-20T11:17:41.713Z,1.42
2022-10-20T11:22:43.442Z,2.17
2022-10-20T11:25:16.339Z,1.20
2022-10-20T11:27:45.205Z,1.25
2022-10-20T11:30:18.882Z,1.70
2022-10-20T11:32:49.913Z,1.40
2022-10-20T11:35:22.963Z,1.30
2022-10-20T11:37:53.731Z,1.13
2022-10-20T11:40:24.711Z,1.75
2022-10-20T11:42:55.864Z,1.42
2022-10-20T11:45:28.708Z,1.17
2022-10-20T11:48:02.067Z,1.45
2022-10-20T11:50:31.578Z,1.05
2022-10-20T11:53:09.680Z,1.30
2022-10-20T11:55:45.951Z,1.17
2022-10-20T11:58:34.997Z,1.60
2022-10-20T12:01:13.764Z,1.02
2022-10-20T12:04:00.689Z,1.20
2022-10-20T12:06:37.415Z,1.02
2022-10-20T12:09:23.403Z,2.15
2022-10-20T12:11:56.599Z,1.38
2022-10-20T12:14:28.987Z,1.20
2022-10-20T12:17:09.340Z,1.45
2022-10-20T12:19:37.879Z,1.38
2022-10-20T12:22:09.169Z,1.00
2022-10-20T12:24:43.023Z,1.30
2022-10-20T12:27:19.363Z,1.60
2022-10-20T12:29:52.577Z,0.80
2022-10-20T12:32:37.525Z,0.98
2022-10-20T12:35:26.244Z,0.90
2022-10-20T12:37:57.162Z,0.77
2022-10-20T12:40:28.172Z,1.08
2022-10-20T12:42:57.346Z,1.10
2022-10-20T12:45:28.991Z,1.27
2022-10-20T12:48:00.193Z,0.77
2022-10-20T12:50:33.938Z,0.80
2022-10-20T12:53:11.187Z,1.25
2022-10-20T12:55:42.019Z,1.08
2022-10-20T12:58:14.858Z,1.67
2022-10-20T13:01:01.131Z,1.33
2022-10-20T13:03:46.619Z,1.20
2022-10-20T13:06:33.704Z,1.50
2022-10-20T13:09:21.397Z,1.58
2022-10-20T13:12:07.525Z,1.00
2022-10-20T13:14:56.996Z,1.58
2022-10-20T13:17:29.111Z,1.20
2022-10-20T13:20:02.070Z,1.10
2022-10-20T13:22:34.345Z,1.27
2022-10-20T13:25:04.956Z,1.00
2022-10-20T13:27:33.339Z,1.77
2022-10-20T13:30:01.840Z,0.98
2022-10-20T13:32:35.500Z,1.05
2022-10-20T13:35:10.332Z,1.40
2022-10-20T13:37:46.199Z,0.98
2022-10-20T13:40:23.604Z,1.20
2022-10-20T13:43:00.678Z,1.45
2022-10-20T13:45:51.946Z,1.02
2022-10-20T13:48:28.449Z,1.52
2022-10-20T13:51:00.041Z,1.20
2022-10-20T13:53:30.272Z,1.02
2022-10-20T13:56:04.165Z,1.33
2022-10-20T13:58:32.858Z,1.40
2022-10-20T14:01:02.879Z,1.45
2022-10-20T14:03:32.331Z,1.08
2022-10-20T14:06:02.136Z,1.10
2022-10-20T14:08:31.127Z,1.30
2022-10-20T14:11:01.425Z,1.42
2022-10-20T14:13:34.455Z,0.90
2022-10-20T14:16:03.863Z,1.30
2022-10-20T14:18:35.361Z,1.00
2022-10-20T14:21:07.056Z,1.27
2022-10-20T14:23:36.949Z,1.15
2022-10-20T14:26:07.255Z,0.82
2022-10-20T14:28:36.682Z,1.02
2022-10-20T14:31:05.471Z,0.82
2022-10-20T14:33:39.941Z,1.30
2022-10-20T14:36:19.003Z,1.75
2022-10-20T14:38:48.687Z,1.73
2022-10-20T14:41:26.325Z,1.00
2022-10-20T14:43:55.781Z,0.90
2022-10-20T14:46:27.760Z,1.25
2022-10-20T14:48:56.195Z,1.23
2022-10-20T14:51:35.782Z,1.52
2022-10-20T14:54:18.365Z,1.23
2022-10-20T14:56:48.487Z,0.80
2022-10-20T14:59:17.851Z,0.85
2022-10-20T15:08:12.018Z,1.35
2022-10-20T15:10:41.319Z,1.40
2022-10-20T15:13:23.613Z,1.23
2022-10-20T15:15:55.581Z,1.58
2022-10-20T15:18:27.853Z,1.05
2022-10-20T15:20:57.751Z,1.40
2022-10-20T15:23:30.318Z,1.48
2022-10-20T15:26:01.522Z,1.50
2022-10-20T15:28:32.777Z,1.15
2022-10-20T15:31:01.836Z,1.20
2022-10-20T15:33:30.347Z,1.67
2022-10-20T15:36:00.596Z,0.90
2022-10-20T15:38:31.306Z,0.88
2022-10-20T15:43:35.074Z,1.05
2022-10-20T15:46:07.116Z,1.58
2022-10-20T15:48:35.534Z,0.77
2022-10-20T15:51:08.685Z,1.30
2022-10-20T15:53:41.877Z,1.70
2022-10-20T15:56:10.690Z,1.33
2022-10-20T15:58:39.962Z,1.02
2022-10-20T16:01:08.618Z,0.98
2022-10-20T16:03:40.762Z,1.35
2022-10-20T16:06:09.129Z,1.05
2022-10-20T16:08:38.946Z,1.08
2022-10-20T16:11:07.408Z,1.13
2022-10-20T16:13:35.957Z,0.77
2022-10-20T16:16:04.724Z,0.80
2022-10-20T16:18:33.080Z,0.77
2022-10-20T16:21:01.979Z,0.77
2022-10-20T16:23:30.420Z,1.35
2022-10-20T16:26:02.157Z,1.48
2022-10-20T16:28:30.909Z,1.67
2022-10-20T16:31:03.269Z,1.55
2022-10-20T16:33:31.621Z,1.02
2022-10-20T16:36:00.005Z,1.13
2022-10-20T16:38:28.450Z,1.38
2022-10-20T16:41:02.491Z,0.77
2022-10-20T16:43:33.482Z,1.20
2022-10-20T16:46:05.620Z,0.77
2022-10-20T16:48:36.962Z,1.00
2022-10-20T16:51:08.071Z,1.30
2022-10-20T16:53:36.828Z,0.93
2022-10-20T16:56:06.773Z,1.50
2022-10-20T16:58:35.362Z,0.88
2022-10-20T17:01:06.278Z,0.82
2022-10-20T17:03:34.872Z,0.85
2022-10-20T17:06:04.052Z,0.70
2022-10-20T17:08:33.132Z,0.90
2022-10-20T17:11:02.101Z,1.30
2022-10-20T17:13:32.467Z,0.98
2022-10-20T17:16:05.409Z,1.13
2022-10-20T17:18:34.320Z,0.80
2022-10-20T17:21:03.168Z,0.98
2022-10-20T17:23:36.266Z,1.23
2022-10-20T17:26:09.375Z,1.35
2022-10-20T17:28:40.053Z,0.88
2022-10-20T17:33:49.003Z,0.77
2022-10-20T17:36:17.979Z,1.00
2022-10-20T17:38:52.084Z,0.65
2022-10-20T17:41:20.463Z,1.87
2022-10-20T17:50:01.186Z,1.00
2022-10-20T17:52:40.458Z,0.98
2022-10-20T17:55:09.911Z,1.08
2022-10-20T17:57:39.506Z,1.10
2022-10-20T18:00:12.986Z,0.90
2022-10-20T18:02:51.363Z,1.35
2022-10-20T18:05:20.249Z,1.30
2022-10-20T18:07:50.839Z,1.40
2022-10-20T18:10:19.470Z,1.20
2022-10-20T18:12:47.993Z,0.95
2022-10-20T18:15:18.430Z,1.20
2022-10-20T18:17:46.913Z,0.88
2022-10-20T18:20:21.631Z,1.42
2022-10-20T18:22:50.057Z,1.95
2022-10-20T18:25:22.134Z,0.63
2022-10-20T18:27:52.680Z,1.52
2022-10-20T18:30:21.033Z,1.10
2022-10-20T18:32:49.424Z,1.17
2022-10-20T18:37:57.552Z,1.48
2022-10-20T18:40:26.004Z,0.98
2022-10-20T18:42:54.449Z,1.35
2022-10-20T18:45:25.900Z,1.00
2022-10-20T18:48:04.176Z,0.90
2022-10-20T18:50:36.063Z,1.08
2022-10-20T18:53:04.564Z,0.98
2022-10-20T18:58:33.177Z,1.00
2022-10-20T19:01:02.326Z,0.98
2022-10-20T19:03:33.176Z,1.23
2022-10-20T19:06:04.704Z,1.13
2022-10-20T19:08:35.149Z,0.95
2022-10-20T19:11:05.012Z,0.60
2022-10-20T19:13:34.496Z,0.85
2022-10-20T19:16:05.341Z,0.85
2022-10-20T19:18:37.914Z,0.88
2022-10-20T19:21:08.592Z,0.63
2022-10-20T19:23:37.841Z,1.38
2022-10-20T19:26:07.465Z,1.27
2022-10-20T19:28:37.392Z,1.17
2022-10-20T19:31:20.610Z,0.98
2022-10-20T19:33:50.429Z,1.00
2022-10-20T19:36:20.561Z,1.52
2022-10-20T19:38:51.323Z,0.85
2022-10-20T19:41:20.025Z,1.10
2022-10-20T19:43:48.870Z,0.88
2022-10-20T19:46:18.412Z,0.68
2022-10-20T19:48:47.442Z,1.10
2022-10-20T19:51:16.723Z,0.80
2022-10-20T19:53:46.881Z,0.98
2022-10-20T19:56:15.326Z,1.02
2022-10-20T19:58:46.604Z,1.20
2022-10-20T20:01:15.570Z,1.02
2022-10-20T20:03:44.552Z,1.13
2022-10-20T20:06:16.513Z,0.95
2022-10-20T20:08:47.172Z,1.35
2022-10-20T20:11:23.903Z,0.95
2022-10-20T20:13:52.531Z,1.00
2022-10-20T20:16:21.251Z,0.82
2022-10-20T20:18:49.715Z,1.27
2022-10-20T20:21:18.802Z,0.93
2022-10-20T20:23:59.355Z,1.08
2022-10-20T20:26:28.871Z,0.93
2022-10-20T20:28:57.607Z,1.23
2022-10-20T20:31:26.806Z,1.10
2022-10-20T20:33:56.969Z,1.13
2022-10-20T20:36:27.036Z,1.15
2022-10-20T20:38:58.452Z,1.42
2022-10-20T20:41:27.721Z,1.13
2022-10-20T20:43:56.119Z,1.23
2022-10-20T20:46:26.775Z,1.10
2022-10-20T20:48:55.358Z,0.73
2022-10-20T20:51:25.290Z,1.17
2022-10-20T20:53:53.644Z,1.25
2022-10-20T20:56:26.873Z,0.98
2022-10-20T20:58:55.943Z,1.15
2022-10-20T21:01:27.376Z,1.38
2022-10-20T21:03:58.609Z,0.80
2022-10-20T21:06:33.631Z,1.50
2022-10-20T21:09:06.931Z,1.08
2022-10-20T21:11:37.029Z,1.70
2022-10-20T21:14:05.656Z,1.13
2022-10-20T21:16:45.244Z,1.73
2022-10-20T21:19:13.652Z,1.30
2022-10-20T21:21:43.767Z,1.20
2022-10-20T21:24:12.546Z,1.13
2022-10-20T21:26:43.605Z,1.90
2022-10-20T21:29:12.191Z,1.65
2022-10-20T21:31:41.140Z,2.20
2022-10-20T21:34:09.477Z,1.63
2022-10-20T21:36:38.606Z,2.38
2022-10-20T21:39:08.024Z,1.40
2022-10-20T21:41:37.072Z,1.20
2022-10-20T21:44:08.888Z,1.13
2022-10-20T21:46:39.119Z,0.98
2022-10-20T21:49:08.464Z,1.35
2022-10-20T21:51:37.651Z,0.95
2022-10-20T21:54:06.934Z,0.90
2022-10-20T21:56:36.360Z,1.15
2022-10-20T21:59:04.719Z,1.02
2022-10-20T22:01:34.412Z,0.80
2022-10-20T22:04:02.686Z,1.23
2022-10-20T22:06:30.946Z,0.85
2022-10-20T22:09:00.247Z,1.15
2022-10-20T22:11:30.289Z,1.95
2022-10-20T22:13:58.906Z,1.23
2022-10-20T22:16:28.117Z,1.23
2022-10-20T22:18:58.061Z,1.35
2022-10-20T22:21:26.519Z,2.85
2022-10-20T22:23:55.349Z,3.10
2022-10-20T22:26:25.628Z,2.58
2022-10-20T22:28:53.932Z,2.10
2022-10-20T22:31:22.990Z,1.90
2022-10-20T22:33:51.624Z,1.15
2022-10-20T22:36:21.319Z,1.10
2022-10-20T22:38:49.715Z,1.30
2022-10-20T22:41:18.012Z,1.83
2022-10-20T22:43:46.302Z,0.93
2022-10-20T22:46:15.758Z,1.30
2022-10-20T22:48:44.046Z,1.15
2022-10-20T22:51:12.484Z,0.70
2022-10-20T22:53:42.514Z,1.67
2022-10-20T22:56:12.157Z,1.83
2022-10-20T22:58:40.576Z,1.02
2022-10-20T23:01:09.423Z,0.60
2022-10-20T23:03:38.046Z,0.90
2022-10-20T23:06:13.025Z,1.27
2022-10-20T23:11:13.502Z,1.30
2022-10-20T23:13:41.874Z,1.20
2022-10-20T23:16:10.241Z,1.00
2022-10-20T23:18:38.568Z,1.15
2022-10-20T23:21:07.523Z,0.88
2022-10-20T23:23:37.263Z,1.33
2022-10-20T23:26:06.212Z,1.45
2022-10-20T23:28:36.335Z,0.77
2022-10-20T23:31:08.409Z,1.05
2022-10-20T23:33:36.856Z,0.88
2022-10-20T23:36:05.305Z,1.00
2022-10-20T23:38:33.616Z,1.20
2022-10-20T23:41:01.945Z,1.02
2022-10-20T23:43:30.273Z,1.23
2022-10-20T23:45:59.988Z,1.45
2022-10-20T23:48:28.265Z,1.80
2022-10-20T23:50:56.723Z,1.10
2022-10-20T23:53:25.043Z,1.30
2022-10-20T23:55:53.653Z,1.17
2022-10-20T23:58:22.732Z,1.40
